createdAt,value
2024-05-09T00:00:42.021Z,9.8883
2024-05-09T00:01:41.882Z,9.8563
2024-05-09T00:02:43.998Z,9.8492
2024-05-09T00:03:46.206Z,9.8575
2024-05-09T00:04:48.360Z,9.8668
2024-05-09T00:05:50.550Z,9.8460
2024-05-09T00:06:52.655Z,9.8210
2024-05-09T00:07:54.757Z,9.8115
2024-05-09T00:08:56.847Z,9.8327
2024-05-09T00:09:58.931Z,9.8321
2024-05-09T00:11:01.073Z,9.8411
2024-05-09T00:12:03.221Z,9.8463
2024-05-09T00:13:05.547Z,9.8382
2024-05-09T00:14:07.695Z,9.8724
2024-05-09T00:15:09.782Z,9.8602
2024-05-09T00:16:11.869Z,9.8480
2024-05-09T00:17:14.055Z,9.8352
2024-05-09T00:18:16.398Z,9.8371
2024-05-09T00:19:18.698Z,9.8293
2024-05-09T00:20:28.052Z,9.8180
2024-05-09T00:21:21.391Z,9.7970
2024-05-09T00:22:23.447Z,9.8074
2024-05-09T00:23:25.608Z,9.8025
2024-05-09T00:24:27.718Z,9.7924
2024-05-09T00:25:29.789Z,9.7869
2024-05-09T00:26:32.014Z,9.7759
2024-05-09T00:27:34.072Z,9.7625
2024-05-09T00:28:36.199Z,9.7503
2024-05-09T00:29:38.291Z,9.7399
2024-05-09T00:30:40.335Z,9.7358
2024-05-09T00:31:42.481Z,9.7149
2024-05-09T00:32:44.682Z,9.6983
2024-05-09T00:33:46.904Z,9.7000
2024-05-09T00:34:49.057Z,9.7176
2024-05-09T00:35:51.096Z,9.7094
2024-05-09T00:36:53.182Z,9.7116
2024-05-09T00:37:55.352Z,9.7157
2024-05-09T00:38:57.402Z,9.7126
2024-05-09T00:39:59.461Z,9.6984
2024-05-09T00:41:01.560Z,9.6790
2024-05-09T00:42:03.629Z,9.6610
2024-05-09T00:43:05.724Z,9.6578
2024-05-09T00:44:07.842Z,9.6565
2024-05-09T00:45:09.884Z,9.6535
2024-05-09T00:46:11.971Z,9.6566
2024-05-09T00:47:14.145Z,9.6600
2024-05-09T00:48:18.863Z,9.6754
2024-05-09T00:49:18.114Z,9.7064
2024-05-09T00:50:29.389Z,9.7376
2024-05-09T00:51:20.974Z,9.7307
2024-05-09T00:52:23.065Z,9.7584
2024-05-09T00:53:25.185Z,9.7766
2024-05-09T00:54:27.197Z,9.7867
2024-05-09T00:55:29.291Z,9.8204
2024-05-09T00:56:31.530Z,9.8223
2024-05-09T00:57:33.616Z,9.8206
2024-05-09T00:58:35.696Z,9.8209
2024-05-09T00:59:37.811Z,9.8514
2024-05-09T01:00:41.256Z,9.8601
2024-05-09T01:01:41.527Z,9.8731
2024-05-09T01:02:43.737Z,9.8768
2024-05-09T01:03:48.717Z,9.8790
2024-05-09T01:04:47.576Z,9.8923
2024-05-09T01:05:49.858Z,9.9058
2024-05-09T01:06:51.961Z,9.9113
2024-05-09T01:07:54.150Z,9.9383
2024-05-09T01:08:56.206Z,9.9273
2024-05-09T01:09:58.289Z,9.9558
2024-05-09T01:11:00.472Z,9.9421
2024-05-09T01:12:02.705Z,9.9684
2024-05-09T01:13:04.906Z,9.9633
2024-05-09T01:14:07.142Z,9.9641
2024-05-09T01:15:09.223Z,9.9720
2024-05-09T01:16:11.291Z,9.9503
2024-05-09T01:17:13.459Z,9.9821
2024-05-09T01:18:15.885Z,9.9695
2024-05-09T01:19:18.149Z,9.9703
2024-05-09T01:20:27.826Z,10.0007
2024-05-09T01:21:20.922Z,9.9863
2024-05-09T01:22:23.029Z,10.0289
2024-05-09T01:23:25.235Z,10.0498
2024-05-09T01:24:27.265Z,10.0513
2024-05-09T01:25:29.340Z,10.0192
2024-05-09T01:26:31.494Z,10.0332
2024-05-09T01:27:33.544Z,10.0130
2024-05-09T01:28:35.678Z,10.0249
2024-05-09T01:29:37.834Z,10.0132
2024-05-09T01:30:39.915Z,9.9852
2024-05-09T01:31:42.030Z,9.9754
2024-05-09T01:32:44.164Z,9.9855
2024-05-09T01:33:46.693Z,9.9703
2024-05-09T01:34:46.506Z,9.9973
2024-05-09T01:35:48.581Z,10.0097
2024-05-09T01:36:50.698Z,10.0227
2024-05-09T01:37:52.774Z,10.0008
2024-05-09T01:38:54.868Z,9.9994
2024-05-09T01:39:56.962Z,9.9837
2024-05-09T01:40:59.067Z,9.9924
2024-05-09T01:42:01.107Z,10.0160
2024-05-09T01:43:03.216Z,9.9964
2024-05-09T01:44:05.312Z,10.0273
2024-05-09T01:45:07.371Z,10.0427
2024-05-09T01:46:09.444Z,10.0521
2024-05-09T01:47:11.735Z,10.0070
2024-05-09T01:48:11.891Z,10.0254
2024-05-09T01:49:14.365Z,10.0207
2024-05-09T01:51:15.853Z,10.0129
2024-05-09T01:52:17.909Z,10.0077
2024-05-09T01:53:20.103Z,10.0430
2024-05-09T01:54:22.162Z,10.0610
2024-05-09T01:55:24.357Z,10.0878
2024-05-09T01:56:26.446Z,10.1127
2024-05-09T01:57:28.635Z,10.0593
2024-05-09T01:58:30.731Z,10.0360
2024-05-09T01:59:32.897Z,10.0435
2024-05-09T02:00:40.022Z,10.0697
2024-05-09T02:01:55.592Z,10.0679
2024-05-09T02:02:36.224Z,10.0657
2024-05-09T02:03:38.531Z,10.0707
2024-05-09T02:04:40.791Z,10.0798
2024-05-09T02:05:42.978Z,10.0952
2024-05-09T02:06:42.916Z,10.1091
2024-05-09T02:07:46.415Z,10.1478
2024-05-09T02:08:49.613Z,10.1426
2024-05-09T02:09:53.058Z,10.1479
2024-05-09T02:10:56.366Z,10.1295
2024-05-09T02:11:59.715Z,10.1240
2024-05-09T02:13:02.950Z,10.1283
2024-05-09T02:14:06.311Z,10.1234
2024-05-09T02:15:09.508Z,10.1111
2024-05-09T02:16:12.728Z,10.1352
2024-05-09T02:17:16.128Z,10.1408
2024-05-09T02:18:17.029Z,10.1632
2024-05-09T02:19:16.899Z,10.1611
2024-05-09T02:20:30.048Z,10.1454
2024-05-09T02:21:22.265Z,10.1336
2024-05-09T02:22:25.465Z,10.1429
2024-05-09T02:23:28.688Z,10.1344
2024-05-09T02:24:31.924Z,10.1361
2024-05-09T02:25:35.128Z,10.1467
2024-05-09T02:26:38.368Z,10.1227
2024-05-09T02:27:41.606Z,10.1352
2024-05-09T02:28:44.827Z,10.1318
2024-05-09T02:29:48.080Z,10.1648
2024-05-09T02:30:51.272Z,10.1592
2024-05-09T02:31:54.574Z,10.1591
2024-05-09T02:32:57.884Z,10.1782
2024-05-09T02:34:01.499Z,10.1341
2024-05-09T02:35:01.572Z,10.1351
2024-05-09T02:36:04.946Z,10.1740
2024-05-09T02:37:08.177Z,10.1734
2024-05-09T02:38:11.491Z,10.2159
2024-05-09T02:39:11.436Z,10.1819
2024-05-09T02:40:18.119Z,10.1619
2024-05-09T02:41:16.794Z,10.1753
2024-05-09T02:42:18.115Z,10.1446
2024-05-09T02:43:21.279Z,10.1392
2024-05-09T02:44:24.591Z,10.1166
2024-05-09T02:45:27.833Z,10.1102
2024-05-09T02:46:27.905Z,10.1120
2024-05-09T02:47:31.183Z,10.1263
2024-05-09T02:48:34.561Z,10.1374
2024-05-09T02:49:37.818Z,10.1626
2024-05-09T02:50:41.297Z,10.1433
2024-05-09T02:51:41.176Z,10.1522
2024-05-09T02:52:44.381Z,10.1233
2024-05-09T02:53:47.646Z,10.1019
2024-05-09T02:54:50.943Z,10.0889
2024-05-09T02:55:54.158Z,10.0740
2024-05-09T02:56:57.342Z,10.0641
2024-05-09T02:58:00.587Z,10.1007
2024-05-09T02:59:03.875Z,10.0781
2024-05-09T03:00:12.101Z,10.0834
2024-05-09T03:01:09.175Z,10.0595
2024-05-09T03:02:12.498Z,10.0638
2024-05-09T03:03:16.080Z,10.0669
2024-05-09T03:04:16.151Z,10.0843
2024-05-09T03:05:19.541Z,10.0638
2024-05-09T03:06:22.725Z,10.0488
2024-05-09T03:07:26.220Z,9.9976
2024-05-09T03:08:26.164Z,9.9681
2024-05-09T03:09:29.337Z,9.9784
2024-05-09T03:10:35.852Z,10.0095
2024-05-09T03:11:34.815Z,10.0193
2024-05-09T03:12:37.859Z,10.0250
2024-05-09T03:13:35.152Z,10.0181
2024-05-09T03:14:38.352Z,10.0143
2024-05-09T03:15:41.618Z,10.0071
2024-05-09T03:16:44.823Z,10.0116
2024-05-09T03:17:48.162Z,10.0012
2024-05-09T03:18:48.041Z,10.0140
2024-05-09T03:19:51.300Z,9.9911
2024-05-09T03:20:54.590Z,10.0030
2024-05-09T03:21:57.825Z,10.0028
2024-05-09T03:23:01.053Z,9.9793
2024-05-09T03:24:04.299Z,9.9928
2024-05-09T03:25:05.563Z,10.0132
2024-05-09T03:26:08.856Z,9.9919
2024-05-09T03:27:12.020Z,10.0238
2024-05-09T03:28:15.312Z,10.0085
2024-05-09T03:29:15.344Z,10.0155
2024-05-09T03:30:29.552Z,10.0021
2024-05-09T03:31:20.731Z,9.9953
2024-05-09T03:32:24.121Z,9.9853
2024-05-09T03:33:27.518Z,9.9610
2024-05-09T03:34:30.948Z,9.9396
2024-05-09T03:35:34.207Z,9.9279
2024-05-09T03:36:37.394Z,9.9442
2024-05-09T03:37:40.599Z,9.9258
2024-05-09T03:38:43.876Z,9.9303
2024-05-09T03:39:47.046Z,9.9571
2024-05-09T03:40:50.890Z,9.9318
2024-05-09T03:41:51.020Z,9.8994
2024-05-09T03:42:54.230Z,9.9128
2024-05-09T03:43:58.354Z,9.9006
2024-05-09T03:44:58.052Z,9.9049
2024-05-09T03:46:01.284Z,9.9103
2024-05-09T03:47:04.537Z,9.9383
2024-05-09T03:48:08.096Z,9.9301
2024-05-09T03:49:08.088Z,9.9497
2024-05-09T03:50:18.316Z,9.9721
2024-05-09T03:51:13.549Z,9.9492
2024-05-09T03:52:16.790Z,9.9539
2024-05-09T03:53:20.144Z,9.9438
2024-05-09T03:54:23.317Z,9.9754
2024-05-09T03:55:26.544Z,9.9836
2024-05-09T03:56:29.776Z,9.9579
2024-05-09T03:57:32.996Z,9.9791
2024-05-09T03:58:36.231Z,9.9609
2024-05-09T03:59:39.588Z,9.9634
2024-05-09T04:00:42.845Z,9.9675
2024-05-09T04:01:46.196Z,9.9445
2024-05-09T04:02:49.513Z,9.9436
2024-05-09T04:03:52.845Z,9.9628
2024-05-09T04:04:56.116Z,9.9493
2024-05-09T04:05:59.375Z,9.9626
2024-05-09T04:07:02.563Z,9.9684
2024-05-09T04:08:05.799Z,9.9699
2024-05-09T04:09:05.850Z,9.9965
2024-05-09T04:10:13.885Z,9.9849
2024-05-09T04:11:11.232Z,10.0338
2024-05-09T04:12:14.635Z,10.0402
2024-05-09T04:13:17.843Z,10.0365
2024-05-09T04:14:21.118Z,10.0694
2024-05-09T04:15:24.355Z,10.0927
2024-05-09T04:16:24.416Z,10.1018
2024-05-09T04:17:27.740Z,10.0930
2024-05-09T04:18:31.091Z,10.1196
2024-05-09T04:19:34.535Z,10.1408
2024-05-09T04:20:40.364Z,10.1479
2024-05-09T04:21:40.951Z,10.1784
2024-05-09T04:22:44.267Z,10.1445
2024-05-09T04:23:47.547Z,10.1687
2024-05-09T04:24:50.786Z,10.1564
2024-05-09T04:25:54.839Z,10.1595
2024-05-09T04:26:54.558Z,10.1533
2024-05-09T04:27:57.830Z,10.1356
2024-05-09T04:29:01.086Z,10.1196
2024-05-09T04:30:06.098Z,10.1546
2024-05-09T04:31:07.459Z,10.1233
2024-05-09T04:32:10.817Z,10.1122
2024-05-09T04:33:14.943Z,10.1102
2024-05-09T04:34:15.216Z,10.1060
2024-05-09T04:35:18.501Z,10.1126
2024-05-09T04:36:21.711Z,10.1242
2024-05-09T04:37:24.976Z,10.1056
2024-05-09T04:38:28.221Z,10.1157
2024-05-09T04:39:31.438Z,10.1326
2024-05-09T04:40:36.698Z,10.1593
2024-05-09T04:41:37.281Z,10.1957
2024-05-09T04:42:40.485Z,10.1826
2024-05-09T04:43:43.712Z,10.2030
2024-05-09T04:44:46.953Z,10.2010
2024-05-09T04:45:50.180Z,10.2006
2024-05-09T04:46:53.512Z,10.2154
2024-05-09T04:47:56.966Z,10.2217
2024-05-09T04:48:56.915Z,10.2527
2024-05-09T04:50:00.203Z,10.2834
2024-05-09T04:51:03.709Z,10.2693
2024-05-09T04:52:03.498Z,10.2375
2024-05-09T04:53:07.613Z,10.2006
2024-05-09T04:54:10.738Z,10.2535
2024-05-09T04:55:09.178Z,10.2419
2024-05-09T04:56:12.495Z,10.2194
2024-05-09T04:57:15.708Z,10.2102
2024-05-09T04:58:18.906Z,10.2239
2024-05-09T04:59:22.296Z,10.2567
2024-05-09T05:00:32.044Z,10.2439
2024-05-09T05:01:27.677Z,10.2943
2024-05-09T05:02:30.951Z,10.2715
2024-05-09T05:03:34.292Z,10.2447
2024-05-09T05:04:37.635Z,10.2605
2024-05-09T05:05:41.361Z,10.2653
2024-05-09T05:06:41.326Z,10.2694
2024-05-09T05:07:44.592Z,10.3056
2024-05-09T05:08:47.823Z,10.3298
2024-05-09T05:09:51.039Z,10.2829
2024-05-09T05:10:54.437Z,10.2381
2024-05-09T05:11:57.831Z,10.2656
2024-05-09T05:13:01.083Z,10.2582
2024-05-09T05:14:04.394Z,10.2785
2024-05-09T05:15:07.580Z,10.3129
2024-05-09T05:16:10.802Z,10.3127
2024-05-09T05:17:14.091Z,10.3384
2024-05-09T05:18:17.463Z,10.3794
2024-05-09T05:19:17.839Z,10.3864
2024-05-09T05:20:27.038Z,10.3979
2024-05-09T05:21:19.861Z,10.3975
2024-05-09T05:22:23.094Z,10.3844
2024-05-09T05:23:26.409Z,10.4485
2024-05-09T05:24:29.642Z,10.4829
2024-05-09T05:25:32.865Z,10.5053
2024-05-09T05:26:36.167Z,10.5178
2024-05-09T05:27:39.417Z,10.5378
2024-05-09T05:28:42.652Z,10.5979
2024-05-09T05:29:45.915Z,10.6096
2024-05-09T05:30:49.126Z,10.6013
2024-05-09T05:31:52.443Z,10.6175
2024-05-09T05:32:55.889Z,10.5660
2024-05-09T05:33:55.923Z,10.4930
2024-05-09T05:34:59.213Z,10.4673
2024-05-09T05:36:02.450Z,10.4822
2024-05-09T05:37:05.648Z,10.5559
2024-05-09T05:38:09.004Z,10.5516
2024-05-09T05:39:09.161Z,10.5014
2024-05-09T05:40:20.629Z,10.5482
2024-05-09T05:41:14.608Z,10.5744
2024-05-09T05:42:17.850Z,10.5633
2024-05-09T05:43:21.067Z,10.4663
2024-05-09T05:44:24.364Z,10.4690
2024-05-09T05:45:27.609Z,10.5075
2024-05-09T05:46:30.841Z,10.5059
2024-05-09T05:47:34.323Z,10.5658
2024-05-09T05:48:34.331Z,10.6261
2024-05-09T05:49:34.290Z,10.6363
2024-05-09T05:50:38.591Z,10.6632
2024-05-09T05:51:38.616Z,10.6566
2024-05-09T05:52:41.841Z,10.5744
2024-05-09T05:53:45.137Z,10.5556
2024-05-09T05:54:48.348Z,10.6025
2024-05-09T05:55:51.628Z,10.6099
2024-05-09T05:56:54.895Z,10.5965
2024-05-09T05:57:58.129Z,10.5311
2024-05-09T05:59:01.425Z,10.5408
2024-05-09T06:00:09.233Z,10.5083
2024-05-09T06:01:06.814Z,10.5422
2024-05-09T06:02:10.236Z,10.5436
2024-05-09T06:03:14.290Z,10.6010
2024-05-09T06:04:14.322Z,10.5857
2024-05-09T06:05:17.605Z,10.5985
2024-05-09T06:06:21.024Z,10.5983
2024-05-09T06:07:24.198Z,10.5905
2024-05-09T06:08:30.256Z,10.6216
2024-05-09T06:09:30.374Z,10.7152
2024-05-09T06:10:38.742Z,10.8023
2024-05-09T06:11:35.803Z,10.8811
2024-05-09T06:12:39.124Z,10.8631
2024-05-09T06:13:42.338Z,10.9051
2024-05-09T06:14:45.573Z,10.9139
2024-05-09T06:15:48.976Z,10.8794
2024-05-09T06:16:54.057Z,10.8840
2024-05-09T06:17:54.595Z,10.8539
2024-05-09T06:18:54.602Z,10.9165
2024-05-09T06:19:54.884Z,11.0295
2024-05-09T06:20:55.091Z,11.0931
2024-05-09T06:21:58.308Z,11.0704
2024-05-09T06:23:01.671Z,11.1745
2024-05-09T06:24:06.778Z,11.2537
2024-05-09T06:25:06.536Z,11.2143
2024-05-09T06:26:09.845Z,11.3020
2024-05-09T06:27:13.038Z,11.4218
2024-05-09T06:28:16.363Z,11.3751
2024-05-09T06:29:19.601Z,11.4319
2024-05-09T06:30:30.115Z,11.5475
2024-05-09T06:31:25.005Z,11.5981
2024-05-09T06:32:28.348Z,11.6200
2024-05-09T06:33:31.764Z,11.6455
2024-05-09T06:34:35.082Z,11.7565
2024-05-09T06:35:38.521Z,11.8135
2024-05-09T06:36:38.331Z,11.8976
2024-05-09T06:37:41.615Z,12.0979
2024-05-09T06:38:44.931Z,12.2529
2024-05-09T06:39:48.145Z,12.2372
2024-05-09T06:40:51.427Z,12.0947
2024-05-09T06:41:51.388Z,12.0866
2024-05-09T06:42:54.621Z,12.1050
2024-05-09T06:43:57.962Z,11.9872
2024-05-09T06:45:01.152Z,11.9997
2024-05-09T06:46:04.376Z,12.1897
2024-05-09T06:47:07.785Z,12.1511
2024-05-09T06:48:11.267Z,12.1928
2024-05-09T06:49:11.412Z,12.2837
2024-05-09T06:50:20.153Z,12.4550
2024-05-09T06:51:13.742Z,12.4798
2024-05-09T06:52:16.962Z,12.5122
2024-05-09T06:53:20.380Z,12.7175
2024-05-09T06:54:23.711Z,12.5459
2024-05-09T06:55:26.939Z,12.3458
2024-05-09T06:56:30.358Z,12.2941
2024-05-09T06:57:33.561Z,12.3739
2024-05-09T06:58:36.908Z,12.4447
2024-05-09T06:59:40.268Z,12.4208
2024-05-09T07:00:43.633Z,12.4819
2024-05-09T07:01:46.920Z,12.5922
2024-05-09T07:02:50.349Z,12.5554
2024-05-09T07:03:53.663Z,12.3360
2024-05-09T07:04:57.018Z,12.3004
2024-05-09T07:05:56.938Z,12.3813
2024-05-09T07:07:00.212Z,12.3683
2024-05-09T07:08:03.526Z,12.3051
2024-05-09T07:09:06.768Z,12.3131
2024-05-09T07:10:14.990Z,12.2573
2024-05-09T07:11:12.229Z,12.2043
2024-05-09T07:12:15.539Z,12.1731
2024-05-09T07:13:18.890Z,12.2508
2024-05-09T07:14:22.194Z,12.2441
2024-05-09T07:15:25.395Z,12.1722
2024-05-09T07:16:28.622Z,12.1145
2024-05-09T07:17:32.088Z,12.0369
2024-05-09T07:18:35.508Z,12.0790
2024-05-09T07:19:35.515Z,12.0052
2024-05-09T07:20:38.807Z,11.9652
2024-05-09T07:21:42.059Z,12.0072
2024-05-09T07:22:45.410Z,11.9965
2024-05-09T07:23:48.723Z,11.9523
2024-05-09T07:24:52.031Z,11.9532
2024-05-09T07:25:55.321Z,12.0361
2024-05-09T07:26:58.540Z,12.1115
2024-05-09T07:28:01.899Z,12.2354
2024-05-09T07:29:05.161Z,12.2778
2024-05-09T07:30:09.424Z,12.4590
2024-05-09T07:31:11.277Z,12.5134
2024-05-09T07:32:14.730Z,12.3725
2024-05-09T07:33:14.757Z,12.3321
2024-05-09T07:34:14.830Z,12.4429
2024-05-09T07:35:14.664Z,12.5036
2024-05-09T07:36:17.851Z,12.5235
2024-05-09T07:37:21.075Z,12.5767
2024-05-09T07:38:24.490Z,12.6244
2024-05-09T07:39:27.731Z,12.6487
2024-05-09T07:40:35.966Z,12.6229
2024-05-09T07:41:33.385Z,12.4638
2024-05-09T07:42:36.569Z,12.4156
2024-05-09T07:43:39.804Z,12.3612
2024-05-09T07:44:43.165Z,12.2840
2024-05-09T07:47:48.609Z,12.4330
2024-05-09T07:49:13.573Z,12.5099
2024-05-09T07:52:45.973Z,12.6471
2024-05-09T07:53:22.088Z,12.5062
2024-05-09T07:53:36.082Z,12.6095
2024-05-09T07:54:04.412Z,12.4434
2024-05-09T07:55:04.708Z,12.4212
2024-05-09T07:56:09.359Z,12.5391
2024-05-09T07:57:09.798Z,12.7078
2024-05-09T07:58:13.151Z,12.5977
2024-05-09T07:59:16.433Z,12.4736
2024-05-09T08:00:23.734Z,12.6487
2024-05-09T08:01:22.062Z,12.8745
2024-05-09T08:02:22.256Z,13.0729
2024-05-09T08:03:22.368Z,13.2130
2024-05-09T08:04:26.778Z,13.1302
2024-05-09T08:05:26.753Z,12.8946
2024-05-09T08:06:30.087Z,12.7515
2024-05-09T08:07:33.426Z,12.8451
2024-05-09T08:08:36.621Z,12.8837
2024-05-09T08:09:39.976Z,13.1023
2024-05-09T08:10:43.502Z,13.0848
2024-05-09T08:11:43.386Z,13.0127
2024-05-09T08:12:46.592Z,13.1426
2024-05-09T08:13:49.857Z,13.1372
2024-05-09T08:14:53.270Z,13.1633
2024-05-09T08:15:56.579Z,13.2034
2024-05-09T08:16:59.810Z,13.0936
2024-05-09T08:18:03.237Z,13.2366
2024-05-09T08:19:06.682Z,13.3758
2024-05-09T08:20:11.355Z,13.2025
2024-05-09T08:21:13.120Z,13.0957
2024-05-09T08:22:12.891Z,13.2058
2024-05-09T08:23:16.095Z,13.1015
2024-05-09T08:24:19.333Z,13.1185
2024-05-09T08:25:22.618Z,13.2658
2024-05-09T08:26:25.836Z,13.1831
2024-05-09T08:27:29.136Z,13.1948
2024-05-09T08:28:32.394Z,13.0535
2024-05-09T08:29:35.604Z,13.0139
2024-05-09T08:30:38.951Z,12.9157
2024-05-09T08:31:42.276Z,12.8319
2024-05-09T08:32:45.736Z,12.8171
2024-05-09T08:33:49.092Z,12.8700
2024-05-09T08:34:52.536Z,12.8626
2024-05-09T08:35:55.806Z,12.8513
2024-05-09T08:37:03.913Z,12.8826
2024-05-09T08:38:01.342Z,12.8510
2024-05-09T08:39:04.643Z,12.7807
2024-05-09T08:40:11.133Z,12.8890
2024-05-09T08:41:10.156Z,13.1381
2024-05-09T08:42:13.396Z,13.1338
2024-05-09T08:43:16.831Z,13.0449
2024-05-09T08:44:16.612Z,13.3470
2024-05-09T08:45:16.738Z,13.4317
2024-05-09T08:46:20.129Z,13.4839
2024-05-09T08:47:20.007Z,13.6131
2024-05-09T08:48:23.510Z,13.8312
2024-05-09T08:49:23.651Z,13.8597
2024-05-09T08:50:35.457Z,13.8070
2024-05-09T08:51:29.178Z,13.9799
2024-05-09T08:52:32.434Z,13.7055
2024-05-09T08:53:35.646Z,13.6600
2024-05-09T08:54:38.909Z,13.5845
2024-05-09T08:55:43.769Z,13.5713
2024-05-09T08:56:44.043Z,13.6172
2024-05-09T08:57:47.364Z,13.8809
2024-05-09T08:58:50.542Z,13.9146
2024-05-09T08:59:53.766Z,13.8374
2024-05-09T09:00:57.123Z,13.8855
2024-05-09T09:02:00.489Z,13.8465
2024-05-09T09:03:03.819Z,13.8796
2024-05-09T09:04:07.338Z,13.7817
2024-05-09T09:05:07.241Z,13.6945
2024-05-09T09:06:10.486Z,13.6714
2024-05-09T09:07:13.847Z,13.6630
2024-05-09T09:08:17.080Z,13.6053
2024-05-09T09:09:20.368Z,13.5048
2024-05-09T09:10:29.804Z,13.3931
2024-05-09T09:11:25.723Z,13.1464
2024-05-09T09:12:28.978Z,13.2562
2024-05-09T09:13:32.217Z,13.1540
2024-05-09T09:14:35.528Z,13.1598
2024-05-09T09:15:38.740Z,13.2979
2024-05-09T09:16:41.936Z,13.3639
2024-05-09T09:17:45.198Z,13.4694
2024-05-09T09:18:48.524Z,13.5955
2024-05-09T09:19:48.469Z,13.7669
2024-05-09T09:20:51.762Z,13.9073
2024-05-09T09:21:55.018Z,13.7803
2024-05-09T09:22:58.252Z,13.4666
2024-05-09T09:24:01.612Z,13.3357
2024-05-09T09:25:04.993Z,13.5315
2024-05-09T09:26:08.303Z,13.5014
2024-05-09T09:27:11.546Z,13.4373
2024-05-09T09:28:14.956Z,13.7358
2024-05-09T09:29:18.185Z,13.8008
2024-05-09T09:30:34.005Z,13.9913
2024-05-09T09:31:23.598Z,14.1878
2024-05-09T09:32:23.598Z,14.2384
2024-05-09T09:33:40.946Z,14.1867
2024-05-09T09:34:43.301Z,14.3735
2024-05-09T09:35:45.431Z,14.6683
2024-05-09T09:36:45.584Z,15.0146
2024-05-09T09:37:47.764Z,14.8557
2024-05-09T09:38:49.835Z,14.8443
2024-05-09T09:39:51.985Z,15.0144
2024-05-09T09:40:54.204Z,14.9402
2024-05-09T09:41:56.308Z,14.8589
2024-05-09T09:42:58.506Z,14.7096
2024-05-09T09:44:00.620Z,14.6095
2024-05-09T09:45:05.460Z,14.5860
2024-05-09T09:46:03.149Z,14.4375
2024-05-09T09:47:05.290Z,14.6338
2024-05-09T09:48:07.522Z,14.5453
2024-05-09T09:49:09.645Z,14.4566
2024-05-09T09:50:14.634Z,14.6311
2024-05-09T09:51:12.368Z,14.7641
2024-05-09T09:52:14.659Z,15.1810
2024-05-09T09:53:16.809Z,15.2513
2024-05-09T09:54:18.921Z,15.2972
2024-05-09T09:55:21.096Z,15.2348
2024-05-09T09:56:23.226Z,15.3393
2024-05-09T09:57:25.349Z,15.4888
2024-05-09T09:58:27.699Z,15.5844
2024-05-09T09:59:29.784Z,15.6324
2024-05-09T10:00:33.528Z,15.3706
2024-05-09T10:01:33.797Z,15.5697
2024-05-09T10:02:35.940Z,15.8247
2024-05-09T10:03:38.341Z,15.9559
2024-05-09T10:04:38.289Z,15.6725
2024-05-09T10:05:42.097Z,15.7379
2024-05-09T10:06:41.361Z,15.6476
2024-05-09T10:07:43.472Z,15.5539
2024-05-09T10:08:45.609Z,15.5823
2024-05-09T10:09:47.768Z,15.8831
2024-05-09T10:10:50.242Z,16.0923
2024-05-09T10:11:52.360Z,16.0040
2024-05-09T10:12:51.833Z,15.9539
2024-05-09T10:13:54.034Z,16.0839
2024-05-09T10:14:56.158Z,16.2900
2024-05-09T10:15:58.415Z,15.8612
2024-05-09T10:17:00.659Z,16.1419
2024-05-09T10:18:03.095Z,15.7427
2024-05-09T10:19:05.363Z,15.5766
2024-05-09T10:20:14.657Z,15.3679
2024-05-09T10:21:08.078Z,15.6468
2024-05-09T10:22:10.344Z,15.8392
2024-05-09T10:23:12.621Z,15.9672
2024-05-09T10:24:14.702Z,16.0752
2024-05-09T10:25:16.874Z,16.3585
2024-05-09T10:26:19.112Z,16.5803
2024-05-09T10:27:21.311Z,16.2489
2024-05-09T10:28:23.546Z,16.4563
2024-05-09T10:29:25.718Z,16.5024
2024-05-09T10:30:34.082Z,16.7599
2024-05-09T10:31:28.561Z,17.0109
2024-05-09T10:32:30.745Z,16.9094
2024-05-09T10:33:33.103Z,16.4855
2024-05-09T10:34:35.414Z,16.8927
2024-05-09T10:35:37.570Z,17.4303
2024-05-09T10:36:39.873Z,17.1447
2024-05-09T10:37:42.025Z,17.2740
2024-05-09T10:38:44.138Z,17.3079
2024-05-09T10:39:46.341Z,17.1467
2024-05-09T10:40:48.447Z,16.7522
2024-05-09T10:41:50.731Z,16.3156
2024-05-09T10:42:52.900Z,16.1706
2024-05-09T10:43:55.024Z,16.0372
2024-05-09T10:44:57.120Z,16.0138
2024-05-09T10:45:59.265Z,15.7546
2024-05-09T10:47:01.401Z,15.6152
2024-05-09T10:48:03.601Z,15.6850
2024-05-09T10:49:07.875Z,15.6632
2024-05-09T10:50:15.737Z,15.6709
2024-05-09T10:51:08.249Z,15.6279
2024-05-09T10:52:10.473Z,15.8117
2024-05-09T10:53:12.582Z,15.8205
2024-05-09T10:54:14.692Z,16.0503
2024-05-09T10:55:17.079Z,16.1993
2024-05-09T10:56:19.183Z,16.3945
2024-05-09T10:57:21.343Z,16.3465
2024-05-09T10:58:23.581Z,16.1711
2024-05-09T10:59:25.689Z,16.4796
2024-05-09T11:00:33.595Z,16.5810
2024-05-09T11:01:28.758Z,16.3041
2024-05-09T11:02:31.122Z,16.0828
2024-05-09T11:03:31.117Z,16.2844
2024-05-09T11:04:33.337Z,16.7885
2024-05-09T11:05:35.528Z,16.9643
2024-05-09T11:06:37.690Z,17.1221
2024-05-09T11:07:40.025Z,17.0514
2024-05-09T11:08:42.216Z,16.4520
2024-05-09T11:09:44.451Z,16.3204
2024-05-09T11:10:46.702Z,16.6490
2024-05-09T11:11:48.879Z,16.8047
2024-05-09T11:12:51.180Z,17.3629
2024-05-09T11:13:53.263Z,17.8135
2024-05-09T11:14:55.492Z,17.0747
2024-05-09T11:15:57.603Z,16.9977
2024-05-09T11:16:58.245Z,16.7864
2024-05-09T11:18:00.583Z,16.6075
2024-05-09T11:19:02.900Z,16.6793
2024-05-09T11:20:13.298Z,16.7613
2024-05-09T11:21:05.697Z,16.5166
2024-05-09T11:22:07.925Z,16.6468
2024-05-09T11:23:10.118Z,17.2186
2024-05-09T11:24:12.194Z,18.0616
2024-05-09T11:25:14.418Z,18.6466
2024-05-09T11:26:16.541Z,17.9146
2024-05-09T11:27:18.655Z,17.8969
2024-05-09T11:28:20.903Z,17.4122
2024-05-09T11:29:23.018Z,17.1079
2024-05-09T11:30:30.115Z,17.1424
2024-05-09T11:31:25.972Z,17.1708
2024-05-09T11:32:28.327Z,17.0567
2024-05-09T11:33:30.634Z,16.7446
2024-05-09T11:34:32.901Z,16.8874
2024-05-09T11:35:35.058Z,16.9170
2024-05-09T11:36:37.207Z,16.6605
2024-05-09T11:37:39.346Z,16.8322
2024-05-09T11:38:41.473Z,17.0273
2024-05-09T11:39:43.612Z,16.8648
2024-05-09T11:40:45.728Z,17.0887
2024-05-09T11:41:47.861Z,17.1945
2024-05-09T11:42:52.498Z,17.1552
2024-05-09T11:43:50.180Z,17.5002
2024-05-09T11:44:52.287Z,17.7309
2024-05-09T11:45:54.431Z,17.6891
2024-05-09T11:46:56.508Z,18.0053
2024-05-09T11:47:58.846Z,18.0764
2024-05-09T11:49:01.110Z,17.9093
2024-05-09T11:50:04.365Z,17.5598
2024-05-09T11:51:04.765Z,17.1636
2024-05-09T11:52:06.909Z,17.0208
2024-05-09T11:53:09.049Z,17.4230
2024-05-09T11:54:11.126Z,17.4720
2024-05-09T11:55:13.320Z,17.3328
2024-05-09T11:56:15.432Z,17.3606
2024-05-09T11:57:17.522Z,16.9655
2024-05-09T11:58:19.854Z,16.6534
2024-05-09T11:59:22.118Z,16.7947
2024-05-09T12:00:33.754Z,16.7868
2024-05-09T12:01:27.510Z,16.5020
2024-05-09T12:02:25.079Z,16.8293
2024-05-09T12:03:27.352Z,16.9432
2024-05-09T12:04:29.581Z,17.1697
2024-05-09T12:05:32.035Z,16.7185
2024-05-09T12:06:31.899Z,16.9767
2024-05-09T12:07:34.037Z,16.8637
2024-05-09T12:08:36.152Z,17.1545
2024-05-09T12:09:38.401Z,17.1653
2024-05-09T12:10:40.769Z,17.5086
2024-05-09T12:11:40.525Z,18.0796
2024-05-09T12:12:42.642Z,18.3027
2024-05-09T12:13:44.791Z,17.8450
2024-05-09T12:14:46.901Z,17.8851
2024-05-09T12:15:49.044Z,17.3845
2024-05-09T12:16:51.275Z,17.3067
2024-05-09T12:17:53.573Z,17.4598
2024-05-09T12:18:55.984Z,17.8171
2024-05-09T12:19:58.182Z,17.6220
2024-05-09T12:21:00.305Z,17.9144
2024-05-09T12:22:02.466Z,18.0907
2024-05-09T12:23:04.613Z,18.2460
2024-05-09T12:24:06.687Z,18.3004
2024-05-09T12:25:08.898Z,18.0342
2024-05-09T12:26:11.075Z,18.3675
2024-05-09T12:27:11.140Z,18.5611
2024-05-09T12:28:13.314Z,18.3996
2024-05-09T12:29:15.451Z,18.3998
2024-05-09T12:30:29.034Z,18.3038
2024-05-09T12:31:18.214Z,18.9630
2024-05-09T12:32:20.432Z,18.6536
2024-05-09T12:33:22.674Z,18.5102
2024-05-09T12:34:24.782Z,18.4120
2024-05-09T12:35:26.895Z,18.4406
2024-05-09T12:36:27.557Z,18.3716
2024-05-09T12:37:29.719Z,18.6598
2024-05-09T12:38:31.838Z,19.0519
2024-05-09T12:39:33.988Z,19.4460
2024-05-09T12:40:38.319Z,19.0030
2024-05-09T12:41:36.525Z,18.6006
2024-05-09T12:42:38.785Z,18.2273
2024-05-09T12:43:40.975Z,18.3032